Time;durP1;ratioP1;P1;durP2;ratioP2;P2;SDS_P1;SDS_P2;PMS_P1;PMS_P2;Temp;Humidity;BMP_temperature;BMP_pressure;BME280_temperature;BME280_humidity;BME280_pressure;Samples;Min_cycle;Max_cycle;Signal;HPM_P1;HPM_P2
2022/08/23 00:00:40;;;;;;;1.30;0.90;;;;;;;20.70;100.00;94754.16;5095308;28;20443;-59
2022/08/23 00:03:08;;;;;;;1.00;1.00;;;;;;;20.40;100.00;94752.22;5094931;28;20917;-59
2022/08/23 00:05:37;;;;;;;3.13;1.23;;;;;;;20.17;100.00;94744.66;5095000;28;20463;-59
2022/08/23 00:08:06;;;;;;;0.60;0.57;;;;;;;20.57;100.00;94741.91;5094427;28;20507;-59
2022/08/23 00:10:34;;;;;;;0.80;0.80;;;;;;;21.02;100.00;94736.13;5094349;28;20436;-59
2022/08/23 00:13:03;;;;;;;0.83;0.83;;;;;;;21.20;100.00;94739.25;5095378;28;20503;-58
2022/08/23 00:15:33;;;;;;;0.57;0.50;;;;;;;21.25;100.00;94741.69;5094787;28;20576;-59
2022/08/23 00:18:02;;;;;;;1.43;0.80;;;;;;;20.74;100.00;94741.59;5094613;28;20515;-59
2022/08/23 00:20:30;;;;;;;0.77;0.63;;;;;;;20.52;100.00;94741.38;5094697;28;20460;-59
2022/08/23 00:22:58;;;;;;;1.43;1.07;;;;;;;20.60;100.00;94741.22;5094192;28;20425;-59
2022/08/23 00:25:27;;;;;;;0.50;0.37;;;;;;;21.04;100.00;94743.84;5093651;28;20487;-59
2022/08/23 00:27:55;;;;;;;0.40;0.30;;;;;;;21.25;100.00;94730.91;5093507;28;20486;-58
2022/08/23 00:30:25;;;;;;;3.40;0.67;;;;;;;20.86;100.00;94749.59;5093480;28;20466;-58
2022/08/23 00:32:55;;;;;;;0.50;0.30;;;;;;;20.58;100.00;94750.75;5094088;28;20491;-58
2022/08/23 00:35:25;;;;;;;1.23;0.47;;;;;;;21.12;100.00;94743.69;5094511;28;20427;-58
2022/08/23 00:37:57;;;;;;;0.50;0.37;;;;;;;21.37;100.00;94736.97;5094480;28;20889;-59
2022/08/23 00:40:49;;;;;;;0.47;0.40;;;;;;;21.48;100.00;94729.09;5093091;28;20424;-58
2022/08/23 00:49:11;;;;;;;0.50;0.40;;;;;;;21.19;100.00;94667.63;5094043;28;20890;-58
2022/08/23 00:51:46;;;;;;;0.50;0.50;;;;;;;21.57;100.00;94712.72;5093521;28;20416;-58
2022/08/23 00:54:22;;;;;;;0.60;0.60;;;;;;;21.53;100.00;94729.59;5094518;28;20420;-58
2022/08/23 00:56:51;;;;;;;0.50;0.30;;;;;;;21.60;100.00;94737.09;5094107;28;20436;-58
2022/08/23 00:59:20;;;;;;;2.20;0.70;;;;;;;21.54;100.00;94751.97;5094411;28;20516;-58
2022/08/23 01:01:48;;;;;;;1.23;0.50;;;;;;;21.53;100.00;94748.47;5093767;28;20463;-58
2022/08/23 01:04:19;;;;;;;1.27;0.43;;;;;;;21.54;100.00;94733.09;5093259;28;20848;-58
2022/08/23 01:06:51;;;;;;;0.50;0.40;;;;;;;21.45;100.00;94738.66;5093553;28;20456;-58
2022/08/23 01:09:21;;;;;;;0.53;0.40;;;;;;;21.30;100.00;94739.47;5093359;28;20841;-59
2022/08/23 01:11:56;;;;;;;0.50;0.40;;;;;;;20.77;100.00;94743.56;5093210;28;20476;-58
2022/08/23 01:14:30;;;;;;;1.20;0.70;;;;;;;20.85;100.00;94739.13;5093339;28;20461;-59
2022/08/23 01:17:06;;;;;;;0.80;0.67;;;;;;;21.00;100.00;94732.97;5094459;28;20420;-59
2022/08/23 01:19:38;;;;;;;0.53;0.50;;;;;;;21.16;100.00;94743.75;5093609;28;20563;-59
2022/08/23 01:22:13;;;;;;;0.50;0.40;;;;;;;21.25;100.00;94753.22;5093007;28;20912;-59
2022/08/23 01:24:45;;;;;;;0.60;0.43;;;;;;;20.99;100.00;94712.56;5093113;28;20510;-58
2022/08/23 01:27:34;;;;;;;0.60;0.30;;;;;;;21.20;100.00;94737.31;5093861;28;20937;-59
2022/08/23 01:30:04;;;;;;;2.10;0.93;;;;;;;21.35;100.00;94765.41;5093264;28;20507;-59
2022/08/23 01:32:37;;;;;;;0.40;0.30;;;;;;;21.04;100.00;94719.59;5093961;28;20448;-59
2022/08/23 01:35:06;;;;;;;1.23;1.07;;;;;;;20.57;100.00;94770.72;5092901;28;20554;-59
2022/08/23 01:37:35;;;;;;;0.50;0.40;;;;;;;20.40;100.00;94779.13;5092395;28;20420;-59
2022/08/23 01:40:06;;;;;;;1.03;1.03;;;;;;;20.81;100.00;94757.13;5092668;28;20464;-58
2022/08/23 01:42:35;;;;;;;0.50;0.40;;;;;;;20.87;100.00;94771.91;5093711;28;20799;-59
2022/08/23 01:45:04;;;;;;;1.27;1.27;;;;;;;20.39;100.00;94766.81;5092913;28;20530;-58
2022/08/23 01:47:33;;;;;;;1.20;1.20;;;;;;;20.29;100.00;94770.75;5093226;28;20520;-59
2022/08/23 01:50:01;;;;;;;1.37;0.70;;;;;;;20.48;100.00;94748.59;5091591;28;20433;-59
2022/08/23 01:52:30;;;;;;;0.50;0.43;;;;;;;20.74;100.00;94763.13;5092134;28;20456;-58
2022/08/23 01:55:00;;;;;;;0.60;0.50;;;;;;;20.88;100.00;94757.31;5092992;28;20511;-58
2022/08/23 01:57:31;;;;;;;1.13;1.13;;;;;;;20.90;100.00;94752.34;5091088;28;20480;-58
2022/08/23 02:00:00;;;;;;;1.40;1.30;;;;;;;21.01;100.00;94750.72;5092745;28;20453;-57
2022/08/23 02:02:28;;;;;;;0.40;0.30;;;;;;;21.07;100.00;94746.66;5091896;28;20940;-58
2022/08/23 02:04:57;;;;;;;0.63;0.50;;;;;;;21.09;100.00;94747.09;5092183;28;20503;-57
2022/08/23 02:07:27;;;;;;;2.00;0.57;;;;;;;21.14;100.00;94754.13;5092243;28;20511;-57
2022/08/23 02:09:55;;;;;;;1.53;0.80;;;;;;;21.13;100.00;94753.34;5092943;28;20432;-57
2022/08/23 02:12:24;;;;;;;0.40;0.30;;;;;;;21.15;100.00;94759.16;5092756;28;20429;-57
2022/08/23 02:14:54;;;;;;;0.60;0.60;;;;;;;21.10;100.00;94761.34;5092009;28;20998;-57
2022/08/23 02:17:22;;;;;;;0.87;0.87;;;;;;;20.74;100.00;94756.97;5092540;28;20892;-58
2022/08/23 02:19:51;;;;;;;0.40;0.30;;;;;;;20.54;100.00;94726.44;5092303;28;20489;-58
2022/08/23 02:22:20;;;;;;;0.60;0.43;;;;;;;20.94;100.00;94764.00;5092450;28;20443;-58
2022/08/23 02:24:49;;;;;;;0.40;0.30;;;;;;;20.43;100.00;94760.38;5092349;28;20500;-58
2022/08/23 02:27:18;;;;;;;0.73;0.50;;;;;;;20.43;100.00;94757.69;5092467;28;20452;-59
2022/08/23 02:29:47;;;;;;;1.10;1.10;;;;;;;20.52;100.00;94768.28;5091911;28;20463;-59
2022/08/23 02:32:20;;;;;;;0.63;0.40;;;;;;;19.99;100.00;94748.75;5091660;28;20944;-59
2022/08/23 02:34:50;;;;;;;0.83;0.67;;;;;;;19.77;100.00;94784.25;5091984;28;20507;-59
2022/08/23 02:37:33;;;;;;;0.40;0.40;;;;;;;20.34;100.00;94770.50;5090736;28;20436;-59
2022/08/23 02:40:01;;;;;;;0.50;0.50;;;;;;;20.39;100.00;94742.59;5091733;28;20861;-59
2022/08/23 02:42:30;;;;;;;0.60;0.60;;;;;;;20.67;100.00;94765.63;5091047;28;20955;-59
2022/08/23 02:44:58;;;;;;;0.50;0.40;;;;;;;20.33;100.00;94723.22;5091262;28;20539;-58
2022/08/23 02:47:28;;;;;;;0.70;0.70;;;;;;;20.81;100.00;94773.28;5091069;28;20519;-58
2022/08/23 02:49:57;;;;;;;1.60;0.67;;;;;;;20.49;100.00;94724.00;5090574;28;20474;-58
2022/08/23 02:52:25;;;;;;;0.50;0.50;;;;;;;20.77;100.00;94783.97;5091200;28;20467;-59
2022/08/23 02:54:53;;;;;;;0.80;0.40;;;;;;;20.79;100.00;94783.63;5091188;28;20436;-58
2022/08/23 02:57:25;;;;;;;0.50;0.40;;;;;;;21.05;100.00;94761.59;5090553;28;20515;-58
2022/08/23 02:59:54;;;;;;;1.33;0.57;;;;;;;21.05;100.00;94762.34;5090523;28;20424;-58
2022/08/23 03:02:23;;;;;;;0.50;0.40;;;;;;;21.00;100.00;94768.00;5090892;28;20428;-58
2022/08/23 03:04:53;;;;;;;0.80;0.60;;;;;;;20.86;100.00;94786.50;5092146;28;20537;-58
2022/08/23 03:07:21;;;;;;;0.83;0.70;;;;;;;20.30;100.00;94780.41;5091721;28;20515;-58
2022/08/23 03:09:49;;;;;;;0.73;0.70;;;;;;;20.67;100.00;94789.88;5090943;28;20416;-58
2022/08/23 03:12:18;;;;;;;0.47;0.43;;;;;;;20.78;100.00;94787.44;5090684;28;20929;-58
2022/08/23 03:14:46;;;;;;;0.60;0.60;;;;;;;20.68;100.00;94793.34;5091016;28;20443;-58
2022/08/23 03:17:15;;;;;;;1.27;0.67;;;;;;;20.84;100.00;94791.47;5090436;28;20532;-58
2022/08/23 03:19:43;;;;;;;0.50;0.30;;;;;;;20.91;100.00;94791.63;5090101;28;20559;-58
2022/08/23 03:22:13;;;;;;;0.50;0.47;;;;;;;20.90;100.00;94784.66;5090691;28;20428;-58
2022/08/23 03:24:42;;;;;;;0.50;0.30;;;;;;;20.93;100.00;94794.75;5090887;28;20507;-59
2022/08/23 03:27:10;;;;;;;0.50;0.50;;;;;;;20.76;100.00;94792.41;5090466;28;20524;-58
2022/08/23 03:29:39;;;;;;;0.70;0.70;;;;;;;20.34;100.00;94810.13;5090077;28;20888;-57
2022/08/23 03:32:07;;;;;;;1.03;1.03;;;;;;;20.30;100.00;94809.22;5090067;28;21066;-58
2022/08/23 03:34:37;;;;;;;0.53;0.50;;;;;;;20.67;100.00;94810.66;5090448;28;21070;-57
2022/08/23 03:37:05;;;;;;;0.70;0.70;;;;;;;20.39;100.00;94815.25;5090892;28;20514;-57
2022/08/23 03:39:36;;;;;;;0.60;0.50;;;;;;;20.43;100.00;94824.19;5090068;28;21011;-58
2022/08/23 03:42:05;;;;;;;0.50;0.50;;;;;;;20.61;100.00;94830.84;5091132;28;20452;-58
2022/08/23 03:44:34;;;;;;;0.50;0.40;;;;;;;20.96;100.00;94823.72;5091382;28;20449;-58
2022/08/23 03:47:02;;;;;;;10.43;3.10;;;;;;;20.71;100.00;94825.75;5089410;28;21086;-57
2022/08/23 03:49:31;;;;;;;0.60;0.50;;;;;;;20.93;100.00;94821.69;5091011;28;20479;-56
2022/08/23 03:52:00;;;;;;;0.40;0.40;;;;;;;21.18;100.00;94833.13;5090701;28;21013;-55
2022/08/23 03:54:28;;;;;;;0.57;0.30;;;;;;;21.05;100.00;94818.16;5090890;28;20425;-56
2022/08/23 03:57:01;;;;;;;1.23;1.13;;;;;;;21.23;100.00;94820.19;5091145;28;20440;-55
2022/08/23 03:59:32;;;;;;;3.77;0.40;;;;;;;20.87;100.00;94750.38;5091042;28;20436;-55
2022/08/23 04:02:01;;;;;;;0.43;0.40;;;;;;;21.41;100.00;94816.00;5091114;28;20456;-55
2022/08/23 04:04:29;;;;;;;0.80;0.67;;;;;;;21.58;100.00;94824.88;5091160;28;20467;-55
2022/08/23 04:06:58;;;;;;;1.00;0.90;;;;;;;21.39;100.00;94820.97;5091065;28;20517;-55
2022/08/23 04:09:26;;;;;;;0.40;0.30;;;;;;;21.61;100.00;94832.25;5091160;28;20507;-55
2022/08/23 04:11:55;;;;;;;0.77;0.77;;;;;;;21.15;100.00;94837.31;5091322;28;20507;-55
2022/08/23 04:14:25;;;;;;;0.60;0.50;;;;;;;20.59;100.00;94808.88;5091184;28;20464;-55
2022/08/23 04:16:53;;;;;;;1.07;0.90;;;;;;;20.54;100.00;94833.38;5091403;28;20412;-55
2022/08/23 04:19:24;;;;;;;0.50;0.30;;;;;;;20.78;100.00;94765.91;5089635;28;20463;-55
2022/08/23 04:21:52;;;;;;;0.60;0.60;;;;;;;21.35;100.00;94857.81;5092759;28;20467;-55
2022/08/23 04:24:21;;;;;;;1.20;1.20;;;;;;;21.31;100.00;94835.41;5094630;28;20459;-55
2022/08/23 04:26:50;;;;;;;2.17;1.10;;;;;;;20.97;100.00;94843.34;5094871;28;20551;-55
2022/08/23 04:29:18;;;;;;;1.67;1.47;;;;;;;21.20;100.00;94849.75;5094101;28;20428;-55
2022/08/23 04:32:04;;;;;;;0.80;0.60;;;;;;;21.60;100.00;94841.47;5094947;28;20408;-55
2022/08/23 04:34:38;;;;;;;0.77;0.60;;;;;;;21.52;100.00;94846.72;5094787;28;20785;-55
2022/08/23 04:37:07;;;;;;;2.00;1.90;;;;;;;21.44;100.00;94846.88;5094714;28;20468;-54
2022/08/23 04:42:16;;;;;;;0.70;0.60;;;;;;;21.67;100.00;94849.72;5094615;28;20478;-54
2022/08/23 04:42:25;;;;;;;1.27;1.27;;;;;;;21.64;100.00;94856.59;5094332;28;20428;-54
2022/08/23 04:44:53;;;;;;;0.80;0.60;;;;;;;21.67;100.00;94855.13;5094280;28;20516;-54
2022/08/23 04:47:23;;;;;;;0.77;0.53;;;;;;;21.89;100.00;94851.81;5094203;28;20518;-54
2022/08/23 04:49:52;;;;;;;0.73;0.73;;;;;;;21.99;100.00;94862.06;5093785;28;20456;-54
2022/08/23 04:52:20;;;;;;;0.67;0.50;;;;;;;21.95;100.00;94864.69;5094253;28;20512;-54
2022/08/23 04:54:49;;;;;;;0.80;0.80;;;;;;;22.06;100.00;94860.28;5094069;28;20460;-54
2022/08/23 04:57:17;;;;;;;1.10;0.60;;;;;;;21.85;100.00;94867.94;5093494;28;20945;-54
2022/08/23 04:59:46;;;;;;;1.60;1.00;;;;;;;21.12;100.00;94877.66;5094063;28;20478;-54
2022/08/23 05:02:14;;;;;;;1.90;1.80;;;;;;;20.23;100.00;94893.25;5093294;28;20513;-54
2022/08/23 05:04:44;;;;;;;1.23;1.13;;;;;;;19.49;100.00;94899.75;5093105;28;20459;-55
2022/08/23 05:07:14;;;;;;;0.60;0.60;;;;;;;19.08;100.00;94840.00;5092765;28;20522;-56
2022/08/23 05:09:42;;;;;;;1.23;1.10;;;;;;;19.30;100.00;94899.47;5092805;28;20527;-55
2022/08/23 05:12:11;;;;;;;0.57;0.57;;;;;;;19.31;100.00;94909.13;5092833;28;20523;-56
2022/08/23 05:14:40;;;;;;;1.63;1.27;;;;;;;19.73;100.00;94912.44;5092814;28;20524;-57
2022/08/23 05:17:14;;;;;;;0.90;0.73;;;;;;;20.49;100.00;94903.59;5093331;28;20431;-56
2022/08/23 05:19:44;;;;;;;1.33;0.43;;;;;;;20.87;100.00;94903.91;5093092;28;20503;-56
2022/08/23 05:22:14;;;;;;;2.30;0.60;;;;;;;20.89;100.00;94896.28;5093443;28;20884;-56
2022/08/23 05:24:42;;;;;;;0.50;0.40;;;;;;;20.87;100.00;94901.22;5093403;28;20482;-55
2022/08/23 05:27:11;;;;;;;0.77;0.73;;;;;;;20.63;100.00;94893.22;5093347;28;20526;-55
2022/08/23 05:29:41;;;;;;;0.60;0.60;;;;;;;20.88;100.00;94910.84;5093368;28;20432;-55
2022/08/23 05:32:10;;;;;;;0.60;0.40;;;;;;;21.00;100.00;94918.13;5093074;28;20433;-55
2022/08/23 05:34:39;;;;;;;0.50;0.50;;;;;;;20.98;100.00;94913.06;5092827;28;20515;-56
2022/08/23 05:37:08;;;;;;;1.53;1.07;;;;;;;20.75;100.00;94912.03;5093401;28;20533;-54
2022/08/23 05:39:37;;;;;;;1.70;1.60;;;;;;;20.90;100.00;94913.97;5092928;28;20420;-57
2022/08/23 05:42:06;;;;;;;1.27;0.40;;;;;;;21.27;100.00;94915.41;5093102;28;20436;-51
2022/08/23 05:44:36;;;;;;;0.70;0.67;;;;;;;21.58;100.00;94927.34;5093083;28;20456;-52
2022/08/23 05:47:05;;;;;;;0.50;0.50;;;;;;;21.81;100.00;94930.97;5092278;28;20472;-54
2022/08/23 05:49:39;;;;;;;0.93;0.67;;;;;;;21.72;100.00;94925.78;5093382;28;20820;-52
2022/08/23 05:52:11;;;;;;;1.20;1.10;;;;;;;20.77;100.00;94915.94;5093172;28;20503;-52
2022/08/23 05:54:40;;;;;;;4.40;1.13;;;;;;;21.10;100.00;94937.25;5092895;28;20523;-51
2022/08/23 05:57:10;;;;;;;0.60;0.43;;;;;;;20.78;100.00;94863.66;5092945;28;20498;-51
2022/08/23 05:59:40;;;;;;;0.70;0.70;;;;;;;21.53;100.00;94941.84;5092889;28;20849;-51
2022/08/23 06:02:09;;;;;;;1.10;0.87;;;;;;;21.59;100.00;94939.69;5093143;28;21010;-51
2022/08/23 06:04:38;;;;;;;1.17;1.07;;;;;;;21.52;100.00;94940.31;5092876;28;20523;-51
2022/08/23 06:07:08;;;;;;;1.07;0.97;;;;;;;21.38;100.00;94943.41;5092857;28;20495;-50
2022/08/23 06:09:38;;;;;;;2.10;1.17;;;;;;;21.64;100.00;94955.59;5092859;28;20860;-50
2022/08/23 06:12:07;;;;;;;0.70;0.50;;;;;;;21.85;100.00;94958.84;5092769;28;20452;-51
2022/08/23 06:14:35;;;;;;;0.60;0.50;;;;;;;21.37;100.00;94971.53;5092894;28;20449;-51
2022/08/23 06:17:04;;;;;;;0.73;0.73;;;;;;;21.25;100.00;94970.78;5092917;28;20424;-51
2022/08/23 06:19:32;;;;;;;1.17;0.60;;;;;;;21.52;100.00;94968.06;5092342;28;20511;-51
2022/08/23 06:22:01;;;;;;;0.50;0.50;;;;;;;21.44;100.00;94977.09;5092553;28;20515;-51
2022/08/23 06:24:30;;;;;;;1.77;1.67;;;;;;;21.47;100.00;94973.72;5092414;28;20798;-51
2022/08/23 06:26:59;;;;;;;1.00;0.90;;;;;;;21.62;100.00;94969.44;5092345;28;20525;-51
2022/08/23 06:29:28;;;;;;;0.63;0.60;;;;;;;21.59;100.00;94962.06;5092466;28;20515;-50
2022/08/23 06:31:56;;;;;;;6.50;1.00;;;;;;;21.65;100.00;94968.75;5092474;28;20467;-51
2022/08/23 06:34:28;;;;;;;1.17;1.17;;;;;;;21.61;100.00;94967.09;5092467;28;21004;-51
2022/08/23 06:36:59;;;;;;;0.80;0.80;;;;;;;21.68;100.00;94965.34;5092674;28;20486;-51
2022/08/23 06:39:30;;;;;;;1.37;0.77;;;;;;;21.68;100.00;94959.97;5092464;28;20471;-52
2022/08/23 06:42:08;;;;;;;0.60;0.40;;;;;;;21.88;100.00;94963.56;5092497;28;20778;-52
2022/08/23 06:44:56;;;;;;;0.70;0.50;;;;;;;21.96;100.00;94960.69;5091998;28;20440;-51
2022/08/23 06:47:25;;;;;;;1.23;1.13;;;;;;;22.26;100.00;94946.72;5091871;28;20511;-51
2022/08/23 06:49:53;;;;;;;1.17;0.83;;;;;;;22.04;100.00;94957.03;5092097;28;20948;-51
2022/08/23 06:52:26;;;;;;;0.63;0.63;;;;;;;22.24;100.00;94944.38;5092199;28;20428;-51
2022/08/23 06:54:55;;;;;;;0.60;0.60;;;;;;;22.20;100.00;94940.81;5091896;28;20944;-51
2022/08/23 06:57:26;;;;;;;0.90;0.50;;;;;;;22.16;100.00;94958.06;5092178;28;20420;-51
2022/08/23 06:59:54;;;;;;;2.27;1.90;;;;;;;21.77;100.00;94965.19;5092169;28;20512;-50
2022/08/23 07:02:24;;;;;;;0.63;0.63;;;;;;;21.94;100.00;94967.56;5091835;28;20485;-50
2022/08/23 07:04:54;;;;;;;2.27;1.17;;;;;;;22.11;100.00;94961.81;5092019;28;20513;-50
2022/08/23 07:07:23;;;;;;;0.80;0.60;;;;;;;22.37;100.00;94964.72;5091656;28;20496;-50
2022/08/23 07:10:05;;;;;;;2.10;0.67;;;;;;;22.14;100.00;94970.00;5091936;28;20416;-50
2022/08/23 07:12:39;;;;;;;1.73;0.73;;;;;;;22.11;100.00;94967.22;5091772;28;20460;-50
2022/08/23 07:15:09;;;;;;;0.70;0.70;;;;;;;22.45;100.00;94965.66;5091716;28;21110;-50
2022/08/23 07:17:37;;;;;;;3.40;1.70;;;;;;;22.80;100.00;94974.56;5091620;28;20955;-50
2022/08/23 07:20:06;;;;;;;4.63;1.00;;;;;;;22.87;100.00;94977.41;5091580;28;20563;-50
2022/08/23 07:22:35;;;;;;;0.80;0.43;;;;;;;22.86;100.00;94970.44;5091587;28;20527;-50
2022/08/23 07:25:04;;;;;;;4.60;0.90;;;;;;;23.09;100.00;94965.91;5091386;28;20913;-50
2022/08/23 07:27:32;;;;;;;1.87;1.03;;;;;;;23.00;100.00;94972.63;5091506;28;20496;-50
2022/08/23 07:30:02;;;;;;;1.23;0.50;;;;;;;22.83;100.00;94954.16;5091545;28;20539;-50
2022/08/23 07:32:31;;;;;;;1.23;0.90;;;;;;;23.11;100.00;94952.00;5091951;28;20520;-50
2022/08/23 07:34:59;;;;;;;3.07;0.60;;;;;;;23.06;100.00;94963.13;5091757;28;20452;-50
2022/08/23 07:37:29;;;;;;;0.57;0.50;;;;;;;23.47;100.00;94964.31;5091763;28;20499;-49
2022/08/23 07:39:58;;;;;;;1.30;1.20;;;;;;;23.62;100.00;94958.81;5091445;28;20523;-50
2022/08/23 07:42:26;;;;;;;0.87;0.80;;;;;;;23.48;100.00;94947.72;5091534;28;20477;-49
2022/08/23 07:44:55;;;;;;;1.00;0.77;;;;;;;23.56;100.00;94965.63;5091621;28;20428;-49
2022/08/23 07:47:27;;;;;;;0.90;0.90;;;;;;;23.55;100.00;94966.78;5091596;28;20547;-49
2022/08/23 07:49:55;;;;;;;0.70;0.70;;;;;;;23.71;100.00;94961.25;5091141;28;20405;-50
2022/08/23 07:52:24;;;;;;;1.60;1.00;;;;;;;23.79;100.00;94965.66;5091345;28;20516;-50
2022/08/23 07:54:52;;;;;;;0.50;0.50;;;;;;;24.14;100.00;94966.25;5091676;28;20444;-49
2022/08/23 07:57:21;;;;;;;1.70;1.60;;;;;;;24.13;100.00;94974.75;5093957;28;20462;-49
2022/08/23 07:59:49;;;;;;;1.00;1.00;;;;;;;24.12;100.00;94968.53;5095178;28;20452;-49
2022/08/23 08:02:17;;;;;;;2.30;1.07;;;;;;;24.48;100.00;94962.53;5095254;28;20416;-49
2022/08/23 08:04:47;;;;;;;0.83;0.83;;;;;;;25.10;100.00;94954.81;5095085;28;20428;-54
2022/08/23 08:07:16;;;;;;;1.40;0.90;;;;;;;25.15;100.00;94946.34;5095045;28;20507;-54
2022/08/23 08:09:48;;;;;;;1.00;0.80;;;;;;;25.06;100.00;94895.13;5095276;28;20456;-54
2022/08/23 08:12:17;;;;;;;0.60;0.40;;;;;;;25.64;100.00;94946.13;5095389;28;20560;-54
2022/08/23 08:14:46;;;;;;;0.80;0.80;;;;;;;26.24;100.00;94942.00;5095207;28;20424;-54
2022/08/23 08:17:16;;;;;;;1.80;0.93;;;;;;;26.53;100.00;94923.94;5094862;28;20463;-55
2022/08/23 08:19:45;;;;;;;0.97;0.87;;;;;;;25.74;100.00;94943.50;5094713;28;20547;-55
2022/08/23 08:22:15;;;;;;;0.40;0.30;;;;;;;26.37;100.00;94929.66;5094649;28;20848;-55
2022/08/23 08:24:44;;;;;;;0.50;0.50;;;;;;;26.71;100.00;94938.41;5095140;28;20463;-55
2022/08/23 08:27:13;;;;;;;0.50;0.43;;;;;;;26.99;100.00;94935.06;5094989;28;20429;-56
2022/08/23 08:29:42;;;;;;;0.40;0.40;;;;;;;26.77;100.00;94928.75;5094616;28;20525;-56
2022/08/23 08:32:11;;;;;;;0.83;0.53;;;;;;;26.86;100.00;94933.84;5094776;28;20428;-55
2022/08/23 08:34:41;;;;;;;0.93;0.93;;;;;;;26.23;100.00;94932.31;5094370;28;20436;-55
2022/08/23 08:37:10;;;;;;;1.00;0.63;;;;;;;26.29;100.00;94905.53;5094822;28;20984;-55
2022/08/23 08:39:44;;;;;;;1.03;1.03;;;;;;;26.62;100.00;94926.31;5094474;28;20468;-55
2022/08/23 08:42:40;;;;;;;0.40;0.30;;;;;;;27.32;100.00;94920.41;5094707;28;20852;-55
2022/08/23 08:45:11;;;;;;;0.50;0.50;;;;;;;27.46;100.00;94918.53;5094359;28;20519;-55
2022/08/23 08:47:45;;;;;;;3.33;0.60;;;;;;;27.46;100.00;94910.34;5094659;28;20432;-55
2022/08/23 08:50:19;;;;;;;0.90;0.90;;;;;;;27.13;100.00;94926.16;5094501;28;20436;-56
2022/08/23 08:52:51;;;;;;;0.40;0.33;;;;;;;27.59;100.00;94914.28;5094199;28;20836;-55
2022/08/23 08:55:27;;;;;;;0.40;0.30;;;;;;;27.66;100.00;94908.81;5094169;28;20515;-55
2022/08/23 08:57:56;;;;;;;0.50;0.30;;;;;;;27.85;100.00;94899.50;5094263;28;20420;-57
2022/08/23 09:00:27;;;;;;;1.77;0.63;;;;;;;28.00;100.00;94901.06;5094279;28;20439;-56
2022/08/23 09:02:58;;;;;;;0.50;0.47;;;;;;;27.93;100.00;94903.75;5094252;28;20451;-55
2022/08/23 09:05:32;;;;;;;0.40;0.30;;;;;;;28.15;100.00;94910.03;5094015;28;20436;-56
2022/08/23 09:08:13;;;;;;;0.30;0.30;;;;;;;28.27;96.21;94917.78;5094107;28;20547;-56
2022/08/23 09:10:54;;;;;;;0.40;0.40;;;;;;;27.70;100.00;94920.50;5094037;28;20468;-56
2022/08/23 09:13:58;;;;;;;0.40;0.40;;;;;;;28.03;100.00;94921.34;5093969;28;20424;-56
2022/08/23 09:16:38;;;;;;;0.50;0.50;;;;;;;27.85;96.63;94926.75;5093553;28;20432;-56
2022/08/23 09:19:07;;;;;;;0.40;0.30;;;;;;;27.53;100.00;94932.13;5093475;28;20470;-56
2022/08/23 09:21:46;;;;;;;0.40;0.30;;;;;;;27.31;100.00;94937.88;5093935;28;20876;-56
2022/08/23 09:24:16;;;;;;;0.90;0.70;;;;;;;27.06;100.00;94937.81;5093666;28;20586;-56
2022/08/23 09:26:46;;;;;;;0.70;0.40;;;;;;;27.25;100.00;94945.66;5093690;28;20454;-56
2022/08/23 09:29:20;;;;;;;0.50;0.40;;;;;;;27.31;100.00;94938.66;5093512;28;20499;-56
2022/08/23 09:31:51;;;;;;;0.60;0.30;;;;;;;27.25;99.88;94939.44;5093668;28;20467;-56
2022/08/23 09:34:37;;;;;;;0.40;0.30;;;;;;;27.75;100.00;94943.84;5093792;28;20409;-55
2022/08/23 09:37:16;;;;;;;0.40;0.30;;;;;;;28.32;94.33;94944.66;5093711;28;20509;-54
2022/08/23 09:39:48;;;;;;;2.30;0.50;;;;;;;28.36;99.51;94877.28;5093287;28;20460;-55
2022/08/23 09:42:30;;;;;;;1.00;0.90;;;;;;;28.28;100.00;94941.16;5093598;28;20481;-55
2022/08/23 09:44:59;;;;;;;1.17;1.07;;;;;;;28.32;100.00;94939.22;5093370;28;20456;-56
2022/08/23 09:47:33;;;;;;;1.63;1.53;;;;;;;28.29;100.00;94937.25;5092682;28;20429;-55
2022/08/23 09:50:24;;;;;;;1.03;1.00;;;;;;;27.58;100.00;94933.69;5093317;28;20816;-55
2022/08/23 09:52:58;;;;;;;0.60;0.60;;;;;;;28.93;100.00;94932.47;5092834;28;20432;-56
2022/08/23 09:55:31;;;;;;;3.90;1.37;;;;;;;27.76;100.00;94939.94;5092860;28;20464;-55
2022/08/23 09:58:03;;;;;;;1.13;1.03;;;;;;;28.04;100.00;94941.94;5092813;28;20467;-56
2022/08/23 10:00:35;;;;;;;4.10;2.90;;;;;;;27.72;100.00;94941.91;5093157;28;20478;-57
2022/08/23 10:03:21;;;;;;;0.70;0.70;;;;;;;27.78;100.00;94951.22;5092945;28;20434;-55
2022/08/23 10:05:51;;;;;;;1.23;1.20;;;;;;;28.43;100.00;94948.16;5092758;28;20468;-55
2022/08/23 10:08:26;;;;;;;0.60;0.60;;;;;;;28.10;100.00;94938.47;5092657;28;20939;-57
2022/08/23 10:10:58;;;;;;;1.20;0.80;;;;;;;28.55;100.00;94934.09;5093060;28;20774;-56
2022/08/23 10:13:29;;;;;;;1.20;1.10;;;;;;;28.39;100.00;94946.63;5092592;28;20873;-55
2022/08/23 10:16:06;;;;;;;1.43;1.33;;;;;;;28.00;99.42;94952.81;5092717;28;20461;-56
2022/08/23 10:18:51;;;;;;;3.80;0.77;;;;;;;28.06;99.47;94950.50;5091963;28;20565;-56
2022/08/23 10:21:25;;;;;;;0.93;0.77;;;;;;;28.26;100.00;94957.09;5092391;28;20876;-53
2022/08/23 10:24:10;;;;;;;1.07;0.87;;;;;;;27.96;100.00;94959.41;5092694;28;20523;-53
2022/08/23 10:26:46;;;;;;;0.80;0.67;;;;;;;28.23;96.15;94955.94;5092546;28;20886;-53
2022/08/23 10:29:39;;;;;;;0.47;0.37;;;;;;;28.97;91.48;94941.41;5092646;28;20560;-53
2022/08/23 10:32:20;;;;;;;2.03;0.60;;;;;;;28.20;95.18;94801.41;5092234;28;20967;-53
2022/08/23 10:35:03;;;;;;;0.73;0.70;;;;;;;29.25;80.20;94946.00;5092542;28;20833;-52
2022/08/23 10:37:56;;;;;;;0.60;0.60;;;;;;;28.99;83.68;94946.50;5092593;28;20434;-52
2022/08/23 10:40:29;;;;;;;1.00;0.60;;;;;;;29.41;81.56;94955.31;5092060;28;20441;-52
2022/08/23 10:43:14;;;;;;;2.87;0.50;;;;;;;30.17;76.54;94948.97;5092081;28;20442;-53
2022/08/23 10:45:46;;;;;;;0.50;0.50;;;;;;;30.32;71.27;94944.94;5092229;28;20514;-54
2022/08/23 10:48:26;;;;;;;0.50;0.40;;;;;;;30.41;77.54;94933.56;5092434;28;20454;-53
2022/08/23 10:50:57;;;;;;;0.50;0.40;;;;;;;30.27;76.40;94936.38;5091826;28;20990;-53
2022/08/23 10:53:35;;;;;;;0.93;0.60;;;;;;;29.12;85.69;94945.63;5092028;28;20464;-50
2022/08/23 10:56:05;;;;;;;2.57;2.37;;;;;;;28.83;90.37;94944.97;5091870;28;20451;-50
2022/08/23 10:58:41;;;;;;;1.23;1.13;;;;;;;29.45;83.89;94901.44;5092268;28;20866;-50
2022/08/23 11:01:14;;;;;;;0.90;0.60;;;;;;;30.42;77.82;94938.63;5092221;28;20795;-50
2022/08/23 11:03:46;;;;;;;2.50;1.50;;;;;;;30.43;72.96;94931.19;5091717;28;20431;-49
2022/08/23 11:06:49;;;;;;;0.60;0.60;;;;;;;30.34;71.57;94931.63;5091844;28;20942;-50
2022/08/23 11:09:46;;;;;;;0.47;0.40;;;;;;;30.74;67.25;94930.84;5049032;28;20591;-49
2022/08/23 11:12:24;;;;;;;0.50;0.50;;;;;;;30.58;71.02;94927.13;5092090;28;20427;-49
2022/08/23 11:15:22;;;;;;;0.40;0.40;;;;;;;31.26;69.09;94919.72;5092008;28;20449;-49
2022/08/23 11:17:59;;;;;;;1.60;0.50;;;;;;;30.76;70.55;94925.00;5092004;28;20521;-49
2022/08/23 11:20:59;;;;;;;0.63;0.60;;;;;;;31.17;68.79;94912.00;5091483;28;20571;-49
2022/08/23 11:23:47;;;;;;;0.50;0.37;;;;;;;30.83;66.55;94913.19;5092012;28;20469;-49
2022/08/23 11:27:01;;;;;;;0.70;0.70;;;;;;;30.34;65.38;94906.22;5091808;28;20437;-50
2022/08/23 11:29:41;;;;;;;0.40;0.40;;;;;;;30.59;58.16;94893.88;5091712;28;20598;-51
2022/08/23 11:32:23;;;;;;;0.40;0.33;;;;;;;30.84;56.06;94892.84;5094492;28;20451;-50
2022/08/23 11:35:09;;;;;;;1.10;0.50;;;;;;;30.68;53.47;94896.16;5096074;28;20792;-50
2022/08/23 11:37:55;;;;;;;0.40;0.40;;;;;;;30.90;53.27;94892.00;5096043;28;20441;-50
2022/08/23 11:41:05;;;;;;;0.40;0.33;;;;;;;30.52;48.75;94890.44;5095731;28;20465;-50
2022/08/23 11:43:37;;;;;;;1.17;0.40;;;;;;;29.96;49.82;94884.31;5095728;28;20436;-49
2022/08/23 11:46:33;;;;;;;0.50;0.40;;;;;;;29.76;53.56;94887.97;5095483;28;20476;-49
2022/08/23 11:49:30;;;;;;;0.70;0.50;;;;;;;29.80;56.34;94881.34;5093807;28;20534;-50
2022/08/23 11:52:11;;;;;;;1.47;0.63;;;;;;;30.05;57.39;94870.97;5095558;28;20434;-50
2022/08/23 11:55:01;;;;;;;0.40;0.30;;;;;;;30.30;63.08;94869.94;5095527;28;20455;-50
2022/08/23 11:57:53;;;;;;;0.50;0.40;;;;;;;30.55;60.67;94860.34;5095246;28;20473;-50